createdAt,value
2018-07-31T00:00:28.318Z,50.80
2018-07-31T00:02:56.479Z,50.70
2018-07-31T00:05:24.614Z,50.30
2018-07-31T00:07:52.854Z,50.20
2018-07-31T00:10:20.977Z,50.10
2018-07-31T00:12:49.106Z,50.00
2018-07-31T00:15:17.229Z,50.00
2018-07-31T00:17:45.384Z,50.00
2018-07-31T00:20:13.596Z,50.00
2018-07-31T00:22:41.737Z,50.10
2018-07-31T00:25:09.866Z,50.30
2018-07-31T00:27:38.002Z,50.50
2018-07-31T00:30:07.595Z,50.90
2018-07-31T00:32:35.724Z,51.20
2018-07-31T00:35:03.884Z,51.50
2018-07-31T00:37:32.013Z,51.80
2018-07-31T00:40:00.125Z,52.10
2018-07-31T00:42:28.263Z,52.30
2018-07-31T00:44:56.388Z,52.60
2018-07-31T00:47:24.526Z,52.80
2018-07-31T00:49:52.645Z,53.20
2018-07-31T00:52:20.797Z,53.50
2018-07-31T00:57:16.834Z,53.80
2018-07-31T00:59:44.962Z,54.10
2018-07-31T01:02:13.090Z,55.00
2018-07-31T01:04:41.238Z,54.60
2018-07-31T01:07:09.366Z,54.80
2018-07-31T01:09:37.539Z,55.00
2018-07-31T01:12:05.671Z,55.10
2018-07-31T01:14:33.801Z,55.30
2018-07-31T01:17:01.922Z,55.40
2018-07-31T01:19:30.066Z,55.60
2018-07-31T01:21:58.226Z,55.70
2018-07-31T01:24:26.334Z,55.80
2018-07-31T01:26:54.490Z,55.90
2018-07-31T01:29:22.650Z,56.10
2018-07-31T01:31:50.775Z,56.30
2018-07-31T01:34:18.910Z,56.50
2018-07-31T01:36:47.044Z,56.70
2018-07-31T01:39:15.197Z,56.80
2018-07-31T01:41:43.346Z,57.00
2018-07-31T01:44:11.500Z,57.20
2018-07-31T01:46:39.634Z,57.50
2018-07-31T01:49:07.770Z,57.60
2018-07-31T01:54:03.802Z,58.00
2018-07-31T01:56:31.980Z,58.20
2018-07-31T01:59:00.093Z,58.50
2018-07-31T02:01:28.233Z,58.70
2018-07-31T02:03:56.375Z,58.90
2018-07-31T02:06:27.534Z,59.00
2018-07-31T02:08:56.831Z,59.20
2018-07-31T02:11:24.970Z,58.90
2018-07-31T02:13:53.689Z,59.60
2018-07-31T02:16:22.071Z,59.70
2018-07-31T02:18:50.196Z,59.90
2018-07-31T02:21:18.331Z,60.00
2018-07-31T02:23:46.463Z,60.20
2018-07-31T02:26:14.585Z,60.30
2018-07-31T02:28:42.836Z,60.60
2018-07-31T02:31:10.922Z,60.80
2018-07-31T02:33:39.035Z,61.10
2018-07-31T02:36:07.234Z,61.10
2018-07-31T02:38:35.365Z,61.40
2018-07-31T02:41:03.506Z,61.60
2018-07-31T02:43:31.655Z,61.70
2018-07-31T02:45:59.783Z,61.90
2018-07-31T02:48:27.917Z,63.00
2018-07-31T02:50:56.058Z,62.40
2018-07-31T02:53:24.213Z,62.50
2018-07-31T02:55:52.347Z,62.70
2018-07-31T02:58:20.588Z,62.90
2018-07-31T03:00:48.630Z,63.50
2018-07-31T03:03:16.775Z,63.40
2018-07-31T03:05:44.913Z,63.50
2018-07-31T03:08:13.132Z,63.70
2018-07-31T03:10:41.327Z,64.00
2018-07-31T03:13:09.463Z,64.10
2018-07-31T03:15:37.615Z,64.20
2018-07-31T03:18:05.770Z,64.40
2018-07-31T03:20:33.946Z,64.60
2018-07-31T03:23:02.092Z,64.70
2018-07-31T03:25:30.258Z,64.90
2018-07-31T03:27:58.398Z,65.10
2018-07-31T03:30:26.529Z,65.30
2018-07-31T03:32:54.673Z,65.30
2018-07-31T03:35:22.810Z,65.40
2018-07-31T03:37:50.969Z,65.60
2018-07-31T03:40:19.130Z,65.80
2018-07-31T03:42:47.289Z,65.80
2018-07-31T03:45:15.408Z,65.90
2018-07-31T03:47:43.547Z,66.10
2018-07-31T03:50:11.707Z,67.00
2018-07-31T03:52:39.838Z,66.30
2018-07-31T03:55:07.998Z,66.40
2018-07-31T03:57:36.141Z,66.60
2018-07-31T04:00:05.031Z,66.70
2018-07-31T04:02:33.157Z,66.80
2018-07-31T04:07:29.300Z,66.90
2018-07-31T04:09:57.456Z,67.00
2018-07-31T04:12:25.599Z,67.00
2018-07-31T04:14:53.746Z,67.10
2018-07-31T04:17:21.885Z,68.00
2018-07-31T04:19:50.064Z,67.20
2018-07-31T04:22:18.197Z,67.20
2018-07-31T04:24:46.358Z,67.20
2018-07-31T04:27:14.493Z,67.40
2018-07-31T04:29:42.670Z,67.50
2018-07-31T04:32:10.846Z,67.60
2018-07-31T04:34:39.000Z,67.60
2018-07-31T04:37:07.147Z,67.70
2018-07-31T04:39:35.366Z,67.70
2018-07-31T04:42:03.506Z,67.70
2018-07-31T04:44:31.646Z,67.80
2018-07-31T04:46:59.772Z,68.00
2018-07-31T04:49:27.922Z,68.20
2018-07-31T04:51:56.083Z,68.10
2018-07-31T04:54:24.230Z,68.10
2018-07-31T04:56:52.476Z,68.10
2018-07-31T04:59:20.534Z,68.20
2018-07-31T05:01:48.759Z,68.20
2018-07-31T05:04:16.942Z,68.30
2018-07-31T05:06:45.039Z,68.30
2018-07-31T05:09:13.421Z,68.30
2018-07-31T05:11:41.894Z,68.30
2018-07-31T05:14:10.046Z,68.30
2018-07-31T05:16:38.191Z,68.10
2018-07-31T05:19:06.327Z,68.30
2018-07-31T05:21:34.474Z,68.30
2018-07-31T05:24:02.625Z,68.30
2018-07-31T05:26:30.774Z,68.30
2018-07-31T05:28:58.934Z,68.40
2018-07-31T05:31:27.082Z,68.40
2018-07-31T05:33:55.222Z,68.50
2018-07-31T05:36:23.361Z,68.50
2018-07-31T05:38:51.658Z,68.50
2018-07-31T05:41:19.790Z,68.50
2018-07-31T05:43:47.954Z,68.60
2018-07-31T05:48:43.985Z,68.40
2018-07-31T05:51:12.115Z,68.40
2018-07-31T05:53:40.253Z,68.20
2018-07-31T05:56:08.406Z,68.10
2018-07-31T05:58:36.558Z,68.10
2018-07-31T06:01:04.751Z,69.00
2018-07-31T06:03:32.916Z,68.30
2018-07-31T06:06:01.029Z,68.20
2018-07-31T06:08:29.162Z,68.10
2018-07-31T06:10:57.297Z,67.90
2018-07-31T06:13:25.449Z,67.90
2018-07-31T06:15:53.597Z,67.80
2018-07-31T06:18:21.737Z,67.70
2018-07-31T06:20:49.902Z,67.80
2018-07-31T06:23:18.039Z,67.70
2018-07-31T06:25:46.170Z,67.80
2018-07-31T06:28:14.303Z,67.80
2018-07-31T06:30:42.474Z,67.80
2018-07-31T06:33:10.601Z,67.80
2018-07-31T06:35:38.729Z,67.90
2018-07-31T06:38:06.871Z,68.00
2018-07-31T06:40:35.001Z,68.00
2018-07-31T06:43:03.163Z,67.80
2018-07-31T06:45:31.337Z,67.50
2018-07-31T06:47:59.495Z,67.30
2018-07-31T06:50:27.633Z,67.40
2018-07-31T06:52:55.844Z,67.20
2018-07-31T06:55:23.977Z,67.00
2018-07-31T06:57:52.115Z,67.00
2018-07-31T07:00:20.253Z,67.00
2018-07-31T07:02:48.383Z,66.80
2018-07-31T07:05:16.518Z,66.70
2018-07-31T07:07:44.667Z,66.80
2018-07-31T07:10:12.886Z,66.20
2018-07-31T07:12:41.021Z,65.90
2018-07-31T07:15:09.163Z,65.80
2018-07-31T07:17:37.315Z,65.70
2018-07-31T07:20:05.458Z,65.70
2018-07-31T07:22:33.613Z,65.70
2018-07-31T07:25:01.755Z,65.30
2018-07-31T07:27:29.878Z,65.40
2018-07-31T07:29:58.037Z,65.10
2018-07-31T07:32:26.201Z,64.80
2018-07-31T07:34:54.334Z,64.70
2018-07-31T07:37:22.554Z,64.60
2018-07-31T07:39:50.685Z,64.60
2018-07-31T07:42:18.959Z,64.40
2018-07-31T07:44:47.149Z,64.30
2018-07-31T07:47:15.292Z,64.00
2018-07-31T07:49:43.489Z,63.90
2018-07-31T07:54:39.590Z,64.60
2018-07-31T07:57:07.829Z,63.70
2018-07-31T07:59:36.261Z,63.60
2018-07-31T08:02:04.407Z,63.40
2018-07-31T08:04:32.566Z,63.30
2018-07-31T08:07:00.693Z,63.00
2018-07-31T08:09:28.842Z,62.90
2018-07-31T08:11:57.046Z,62.80
2018-07-31T08:14:25.177Z,62.50
2018-07-31T08:16:53.365Z,62.50
2018-07-31T08:19:21.506Z,62.60
2018-07-31T08:21:49.653Z,62.70
2018-07-31T08:24:17.798Z,62.50
2018-07-31T08:26:45.940Z,62.40
2018-07-31T08:29:14.071Z,62.40
2018-07-31T08:34:10.141Z,61.70
2018-07-31T08:36:38.307Z,61.20
2018-07-31T08:39:08.135Z,61.00
2018-07-31T08:41:36.561Z,61.20
2018-07-31T08:44:05.119Z,60.70
2018-07-31T08:46:33.260Z,60.40
2018-07-31T08:49:01.428Z,59.80
2018-07-31T08:51:29.854Z,59.40
2018-07-31T08:53:58.006Z,58.90
2018-07-31T08:56:26.146Z,58.70
2018-07-31T08:58:54.289Z,59.50
2018-07-31T09:01:22.414Z,59.50
2018-07-31T09:03:50.549Z,58.70
2018-07-31T09:06:18.690Z,58.50
2018-07-31T09:08:46.892Z,57.90
2018-07-31T09:11:15.077Z,57.50
2018-07-31T09:13:43.242Z,57.40
2018-07-31T09:16:11.399Z,57.40
2018-07-31T09:18:39.528Z,56.60
2018-07-31T09:21:07.705Z,56.60
2018-07-31T09:23:35.826Z,56.10
2018-07-31T09:26:03.994Z,55.50
2018-07-31T09:28:32.130Z,55.40
2018-07-31T09:31:05.770Z,55.90
2018-07-31T09:33:33.777Z,55.30
2018-07-31T09:36:01.944Z,55.30
2018-07-31T09:38:30.097Z,55.00
2018-07-31T09:43:26.170Z,54.80
2018-07-31T09:45:54.308Z,54.70
2018-07-31T09:48:22.446Z,54.80
2018-07-31T09:50:50.590Z,55.00
2018-07-31T09:53:18.733Z,54.80
2018-07-31T09:55:46.879Z,54.40
2018-07-31T09:58:15.036Z,54.20
2018-07-31T10:00:48.656Z,54.30
2018-07-31T10:03:16.794Z,54.70
2018-07-31T10:05:44.927Z,54.60
2018-07-31T10:08:17.311Z,53.60
2018-07-31T10:10:45.472Z,52.80
2018-07-31T10:13:13.606Z,52.50
2018-07-31T10:15:41.750Z,52.30
2018-07-31T10:18:09.904Z,52.20
2018-07-31T10:20:38.022Z,51.80
2018-07-31T10:23:06.210Z,50.80
2018-07-31T10:25:34.354Z,50.30
2018-07-31T10:28:02.506Z,50.10
2018-07-31T10:30:30.655Z,49.80
2018-07-31T10:32:58.778Z,50.00
2018-07-31T10:35:26.929Z,49.70
2018-07-31T10:37:55.095Z,49.90
2018-07-31T10:40:23.208Z,50.20
2018-07-31T10:42:51.346Z,51.00
2018-07-31T10:45:19.528Z,49.80
2018-07-31T10:47:47.713Z,49.50
2018-07-31T10:50:15.881Z,49.30
2018-07-31T10:52:44.103Z,49.10
2018-07-31T10:55:12.251Z,49.30
2018-07-31T10:57:40.653Z,49.30
2018-07-31T11:00:09.105Z,49.00
2018-07-31T11:02:37.270Z,48.90
2018-07-31T11:05:05.470Z,49.10
2018-07-31T11:07:33.605Z,49.00
2018-07-31T11:10:01.876Z,49.20
2018-07-31T11:12:30.028Z,49.50
2018-07-31T11:14:58.223Z,49.20
2018-07-31T11:17:26.373Z,49.10
2018-07-31T11:19:54.548Z,49.00
2018-07-31T11:22:22.662Z,48.70
2018-07-31T11:24:50.777Z,48.80
2018-07-31T11:27:18.925Z,48.50
2018-07-31T11:29:47.150Z,48.00
2018-07-31T11:32:15.312Z,47.90
2018-07-31T11:34:43.448Z,47.90
2018-07-31T11:37:11.578Z,47.70
2018-07-31T11:39:39.701Z,47.90
2018-07-31T11:42:07.839Z,48.30
2018-07-31T11:44:35.995Z,48.30
2018-07-31T11:47:04.124Z,47.70
2018-07-31T11:49:32.302Z,47.00
2018-07-31T11:52:00.416Z,46.30
2018-07-31T11:54:28.556Z,45.40
2018-07-31T11:56:56.694Z,45.70
2018-07-31T11:59:24.838Z,45.40
2018-07-31T12:01:52.974Z,45.60
2018-07-31T12:04:21.163Z,45.60
2018-07-31T12:06:49.284Z,44.50
2018-07-31T12:09:17.440Z,43.90
2018-07-31T12:11:45.575Z,43.50
2018-07-31T12:14:14.124Z,43.40
2018-07-31T12:16:42.417Z,43.00
2018-07-31T12:19:10.569Z,42.60
2018-07-31T12:21:38.782Z,42.00
2018-07-31T12:24:06.932Z,42.00
2018-07-31T12:26:35.076Z,41.90
2018-07-31T12:29:03.202Z,41.70
2018-07-31T12:31:31.358Z,41.70
2018-07-31T12:33:59.494Z,42.20
2018-07-31T12:36:27.634Z,42.90
2018-07-31T12:38:55.777Z,42.00
2018-07-31T12:41:23.904Z,41.80
2018-07-31T12:43:52.031Z,41.90
2018-07-31T12:46:20.179Z,41.90
2018-07-31T12:48:48.310Z,42.10
2018-07-31T12:51:16.545Z,42.10
2018-07-31T12:53:44.713Z,42.70
2018-07-31T12:56:12.872Z,43.10
2018-07-31T12:58:41.010Z,43.30
2018-07-31T13:01:09.167Z,43.00
2018-07-31T13:03:37.354Z,42.90
2018-07-31T13:06:05.548Z,43.00
2018-07-31T13:08:33.680Z,44.00
2018-07-31T13:11:01.813Z,42.90
2018-07-31T13:13:29.948Z,42.50
2018-07-31T13:15:58.106Z,42.30
2018-07-31T13:18:26.241Z,42.10
2018-07-31T13:20:54.390Z,42.20
2018-07-31T13:23:22.536Z,42.30
2018-07-31T13:25:50.680Z,42.20
2018-07-31T13:28:18.822Z,42.10
2018-07-31T13:30:47.002Z,42.30
2018-07-31T13:33:15.094Z,42.70
2018-07-31T13:35:43.229Z,43.10
2018-07-31T13:38:11.363Z,43.40
2018-07-31T13:40:39.494Z,43.50
2018-07-31T13:43:07.698Z,43.50
2018-07-31T13:45:35.946Z,43.90
2018-07-31T13:48:04.314Z,44.20
2018-07-31T13:50:33.494Z,44.10
2018-07-31T13:53:01.635Z,44.20
2018-07-31T13:55:29.837Z,44.60
2018-07-31T13:57:58.788Z,45.30
2018-07-31T14:00:27.138Z,44.60
2018-07-31T14:02:55.288Z,44.70
2018-07-31T14:05:23.437Z,45.40
2018-07-31T14:07:52.592Z,44.60
2018-07-31T14:10:20.734Z,44.70
2018-07-31T14:12:48.842Z,44.80
2018-07-31T14:15:16.979Z,44.70
2018-07-31T14:17:45.106Z,44.70
2018-07-31T14:20:13.245Z,44.70
2018-07-31T14:22:41.396Z,44.50
2018-07-31T14:25:09.523Z,44.00
2018-07-31T14:27:37.650Z,44.10
2018-07-31T14:30:06.249Z,44.40
2018-07-31T14:32:34.381Z,44.30
2018-07-31T14:35:02.501Z,44.00
2018-07-31T14:37:30.786Z,43.60
2018-07-31T14:39:58.913Z,43.30
2018-07-31T14:42:27.074Z,43.40
2018-07-31T14:44:55.187Z,43.40
2018-07-31T14:47:23.334Z,43.60
2018-07-31T14:49:51.470Z,43.80
2018-07-31T14:52:19.642Z,43.50
2018-07-31T14:54:47.789Z,43.20
2018-07-31T14:57:16.005Z,43.10
2018-07-31T14:59:44.150Z,43.10
2018-07-31T15:04:40.289Z,43.40
2018-07-31T15:07:08.499Z,43.40
2018-07-31T15:09:36.668Z,43.40
2018-07-31T15:12:04.854Z,43.20
2018-07-31T15:14:33.018Z,43.20
2018-07-31T15:17:01.159Z,43.20
2018-07-31T15:19:29.340Z,43.00
2018-07-31T15:21:57.523Z,43.00
2018-07-31T15:24:25.710Z,43.10
2018-07-31T15:26:53.862Z,43.00
2018-07-31T15:29:22.010Z,43.10
2018-07-31T15:31:50.142Z,43.00
2018-07-31T15:34:18.276Z,42.60
2018-07-31T15:36:46.418Z,42.40
2018-07-31T15:39:14.589Z,42.70
2018-07-31T15:41:42.762Z,42.60
2018-07-31T15:44:11.090Z,42.50
2018-07-31T15:46:39.238Z,42.30
2018-07-31T15:49:07.381Z,41.90
2018-07-31T15:51:35.518Z,41.60
2018-07-31T15:54:03.841Z,41.50
2018-07-31T15:56:31.970Z,41.50
2018-07-31T15:59:00.154Z,41.50
2018-07-31T16:01:29.037Z,41.50
2018-07-31T16:03:57.561Z,41.20
2018-07-31T16:06:25.720Z,41.00
2018-07-31T16:08:53.951Z,41.00
2018-07-31T16:11:22.086Z,40.90
2018-07-31T16:13:50.228Z,40.90
2018-07-31T16:16:18.369Z,40.80
2018-07-31T16:18:46.550Z,40.60
2018-07-31T16:21:14.686Z,40.50
2018-07-31T16:23:42.835Z,40.50
2018-07-31T16:26:10.975Z,40.40
2018-07-31T16:28:39.085Z,40.30
2018-07-31T16:31:07.233Z,40.40
2018-07-31T16:33:35.419Z,40.50
2018-07-31T16:36:03.570Z,40.50
2018-07-31T16:38:31.783Z,40.20
2018-07-31T16:40:59.925Z,39.90
2018-07-31T16:43:28.074Z,40.70
2018-07-31T16:45:56.276Z,41.90
2018-07-31T16:50:52.260Z,43.20
2018-07-31T16:53:20.428Z,44.10
2018-07-31T16:55:48.586Z,44.50
2018-07-31T16:58:17.364Z,44.50
2018-07-31T17:00:48.129Z,44.50
2018-07-31T17:03:16.263Z,44.50
2018-07-31T17:05:44.432Z,44.70
2018-07-31T17:08:12.570Z,45.30
2018-07-31T17:10:40.713Z,45.70
2018-07-31T17:13:08.902Z,45.90
2018-07-31T17:15:37.078Z,46.10
2018-07-31T17:18:05.217Z,46.20
2018-07-31T17:20:33.423Z,46.50
2018-07-31T17:23:01.566Z,46.50
2018-07-31T17:25:29.701Z,46.60
2018-07-31T17:27:57.833Z,46.70
2018-07-31T17:30:25.991Z,46.90
2018-07-31T17:32:54.134Z,47.10
2018-07-31T17:35:22.389Z,47.10
2018-07-31T17:37:50.731Z,47.20
2018-07-31T17:40:19.111Z,47.10
2018-07-31T17:42:47.278Z,46.90
2018-07-31T17:45:15.485Z,47.50
2018-07-31T17:47:43.619Z,47.20
2018-07-31T17:50:11.784Z,47.10
2018-07-31T17:52:39.947Z,47.10
2018-07-31T17:55:08.118Z,47.10
2018-07-31T17:57:36.267Z,48.00
2018-07-31T18:00:05.040Z,47.20
2018-07-31T18:02:33.181Z,47.00
2018-07-31T18:05:01.335Z,47.30
2018-07-31T18:07:29.534Z,47.20
2018-07-31T18:09:57.702Z,47.40
2018-07-31T18:12:25.853Z,47.40
2018-07-31T18:14:53.983Z,47.50
2018-07-31T18:17:22.155Z,47.60
2018-07-31T18:19:50.314Z,47.70
2018-07-31T18:22:18.425Z,47.90
2018-07-31T18:24:46.589Z,47.80
2018-07-31T18:27:14.713Z,47.70
2018-07-31T18:29:42.871Z,47.60
2018-07-31T18:32:11.018Z,47.50
2018-07-31T18:34:39.197Z,47.40
2018-07-31T18:37:07.336Z,47.30
2018-07-31T18:39:35.492Z,47.40
2018-07-31T18:42:03.622Z,47.40
2018-07-31T18:44:31.757Z,46.80
2018-07-31T18:46:59.898Z,46.50
2018-07-31T18:49:28.038Z,46.40
2018-07-31T18:51:56.199Z,46.40
2018-07-31T18:54:24.334Z,46.20
2018-07-31T18:56:52.457Z,46.20
2018-07-31T18:59:20.601Z,46.20
2018-07-31T19:01:48.763Z,46.70
2018-07-31T19:04:16.893Z,46.10
2018-07-31T19:06:45.146Z,46.30
2018-07-31T19:09:13.243Z,46.20
2018-07-31T19:11:42.553Z,46.30
2018-07-31T19:14:10.778Z,46.50
2018-07-31T19:16:38.913Z,46.50
2018-07-31T19:19:07.086Z,46.40
2018-07-31T19:21:35.234Z,46.50
2018-07-31T19:24:03.350Z,46.50
2018-07-31T19:26:31.506Z,46.60
2018-07-31T19:28:59.637Z,46.80
2018-07-31T19:31:27.827Z,47.30
2018-07-31T19:33:56.094Z,46.90
2018-07-31T19:36:24.189Z,46.90
2018-07-31T19:38:52.381Z,47.00
2018-07-31T19:41:20.559Z,47.00
2018-07-31T19:43:48.688Z,47.30
2018-07-31T19:46:16.905Z,47.40
2018-07-31T19:48:44.975Z,47.40
2018-07-31T19:51:13.123Z,47.30
2018-07-31T19:53:41.256Z,47.30
2018-07-31T19:56:09.385Z,47.30
2018-07-31T19:58:37.525Z,47.30
2018-07-31T20:01:05.666Z,47.20
2018-07-31T20:03:33.809Z,47.20
2018-07-31T20:06:01.983Z,47.20
2018-07-31T20:08:30.126Z,47.40
2018-07-31T20:10:58.266Z,47.50
2018-07-31T20:13:26.401Z,47.40
2018-07-31T20:15:54.527Z,47.40
2018-07-31T20:18:22.665Z,47.60
2018-07-31T20:20:50.826Z,47.60
2018-07-31T20:23:18.929Z,47.50
2018-07-31T20:25:47.052Z,47.40
2018-07-31T20:28:15.173Z,47.40
2018-07-31T20:30:43.307Z,47.40
2018-07-31T20:33:11.402Z,47.40
2018-07-31T20:35:39.534Z,47.40
2018-07-31T20:38:07.672Z,47.60
2018-07-31T20:40:35.813Z,47.80
2018-07-31T20:43:03.959Z,47.90
2018-07-31T20:45:32.082Z,48.00
2018-07-31T20:48:00.210Z,48.10
2018-07-31T20:50:28.338Z,48.00
2018-07-31T20:52:56.474Z,48.10
2018-07-31T20:55:24.633Z,48.00
2018-07-31T20:57:52.780Z,48.20
2018-07-31T21:00:20.926Z,49.00
2018-07-31T21:02:49.041Z,48.50
2018-07-31T21:05:17.177Z,48.50
2018-07-31T21:07:45.308Z,48.60
2018-07-31T21:10:13.437Z,48.60
2018-07-31T21:12:41.570Z,48.70
2018-07-31T21:15:09.722Z,48.50
2018-07-31T21:17:37.829Z,48.50
2018-07-31T21:20:05.956Z,48.60
2018-07-31T21:22:34.090Z,48.50
2018-07-31T21:25:02.226Z,48.50
2018-07-31T21:29:58.274Z,48.60
2018-07-31T21:32:26.450Z,48.40
2018-07-31T21:34:54.610Z,48.50
2018-07-31T21:37:22.735Z,48.40
2018-07-31T21:39:50.873Z,48.20
2018-07-31T21:42:19.002Z,48.30
2018-07-31T21:44:47.130Z,48.40
2018-07-31T21:47:15.238Z,48.50
2018-07-31T21:49:43.369Z,48.50
2018-07-31T21:52:11.578Z,48.50
2018-07-31T21:54:39.748Z,48.50
2018-07-31T21:57:07.930Z,48.50
2018-07-31T21:59:36.142Z,48.50
2018-07-31T22:02:04.237Z,48.70
2018-07-31T22:04:32.346Z,48.70
2018-07-31T22:07:00.470Z,48.70
2018-07-31T22:09:31.073Z,48.60
2018-07-31T22:11:59.638Z,49.30
2018-07-31T22:14:28.136Z,48.70
2018-07-31T22:16:56.315Z,48.70
2018-07-31T22:19:24.454Z,48.70
2018-07-31T22:21:52.587Z,48.70
2018-07-31T22:24:20.706Z,48.70
2018-07-31T22:26:48.850Z,48.50
2018-07-31T22:29:16.970Z,48.50
2018-07-31T22:31:45.105Z,48.60
2018-07-31T22:34:13.286Z,48.60
2018-07-31T22:36:41.364Z,48.70
2018-07-31T22:39:10.682Z,48.60
2018-07-31T22:41:38.818Z,48.80
2018-07-31T22:44:06.979Z,48.90
2018-07-31T22:46:35.120Z,49.00
2018-07-31T22:51:31.230Z,49.00
2018-07-31T22:53:59.341Z,49.10
2018-07-31T22:56:27.474Z,49.20
2018-07-31T22:58:55.626Z,49.20
2018-07-31T23:01:23.753Z,49.40
2018-07-31T23:03:51.869Z,49.40
2018-07-31T23:06:20.036Z,49.50
2018-07-31T23:08:48.167Z,49.60
2018-07-31T23:11:16.297Z,49.70
2018-07-31T23:13:44.420Z,49.90
2018-07-31T23:16:12.589Z,49.90
2018-07-31T23:21:08.696Z,50.00
2018-07-31T23:23:36.787Z,50.10
2018-07-31T23:26:04.927Z,50.10
2018-07-31T23:28:33.117Z,50.20
2018-07-31T23:31:01.208Z,50.30
2018-07-31T23:33:29.337Z,50.30
2018-07-31T23:35:57.482Z,50.50
2018-07-31T23:38:25.622Z,50.70
2018-07-31T23:40:53.746Z,50.70
2018-07-31T23:43:21.876Z,50.70
2018-07-31T23:45:50.001Z,50.90
2018-07-31T23:48:18.129Z,50.90
2018-07-31T23:50:46.267Z,51.00
2018-07-31T23:53:14.385Z,51.20
2018-07-31T23:55:42.527Z,51.20
2018-07-31T23:58:10.669Z,51.40
